createdAt,value
2019-03-25T00:00:58.792Z,36.65
2019-03-25T00:03:30.725Z,36.83
2019-03-25T00:06:03.269Z,36.25
2019-03-25T00:08:37.253Z,35.70
2019-03-25T00:11:09.811Z,35.05
2019-03-25T00:13:42.513Z,35.83
2019-03-25T00:16:14.598Z,36.05
2019-03-25T00:18:46.555Z,34.43
2019-03-25T00:21:19.090Z,35.75
2019-03-25T00:23:51.913Z,36.85
2019-03-25T00:26:24.056Z,37.63
2019-03-25T00:28:56.213Z,35.45
2019-03-25T00:31:28.277Z,36.17
2019-03-25T00:34:00.463Z,36.00
2019-03-25T00:36:33.459Z,38.08
2019-03-25T00:39:07.356Z,36.00
2019-03-25T00:41:39.662Z,40.70
2019-03-25T00:44:11.998Z,34.25
2019-03-25T00:46:44.163Z,32.35
2019-03-25T00:49:16.294Z,34.03
2019-03-25T00:51:49.136Z,36.58
2019-03-25T00:54:21.663Z,34.78
2019-03-25T00:56:53.891Z,33.83
2019-03-25T00:59:26.224Z,32.23
2019-03-25T01:01:58.353Z,32.98
2019-03-25T01:04:30.534Z,35.17
2019-03-25T01:07:03.797Z,33.85
2019-03-25T01:09:35.804Z,32.13
2019-03-25T01:12:08.662Z,31.57
2019-03-25T01:14:41.032Z,31.52
2019-03-25T01:17:13.389Z,32.28
2019-03-25T01:19:45.453Z,31.20
2019-03-25T01:22:17.616Z,29.65
2019-03-25T01:25:00.920Z,28.87
2019-03-25T01:27:24.533Z,31.30
2019-03-25T01:29:56.730Z,29.18
2019-03-25T01:32:28.930Z,30.40
2019-03-25T01:35:01.030Z,27.95
2019-03-25T01:37:33.284Z,29.48
2019-03-25T01:40:07.449Z,28.70
2019-03-25T01:42:39.908Z,27.65
2019-03-25T01:45:12.796Z,28.47
2019-03-25T01:47:44.854Z,28.50
2019-03-25T01:50:17.531Z,26.82
2019-03-25T01:52:49.742Z,26.52
2019-03-25T01:55:22.287Z,26.82
2019-03-25T01:57:54.882Z,27.00
2019-03-25T02:00:27.545Z,27.87
2019-03-25T02:02:59.928Z,27.10
2019-03-25T02:05:32.282Z,26.35
2019-03-25T02:08:04.458Z,26.37
2019-03-25T02:10:37.881Z,25.12
2019-03-25T02:13:12.589Z,23.57
2019-03-25T02:15:44.814Z,23.62
2019-03-25T02:18:17.079Z,23.35
2019-03-25T02:20:49.279Z,23.55
2019-03-25T02:23:22.404Z,22.85
2019-03-25T02:25:58.985Z,21.50
2019-03-25T02:28:31.057Z,21.62
2019-03-25T02:31:03.284Z,23.05
2019-03-25T02:33:35.706Z,21.55
2019-03-25T02:36:08.488Z,21.77
2019-03-25T02:38:59.760Z,23.32
2019-03-25T02:41:32.003Z,20.77
2019-03-25T02:44:03.918Z,21.33
2019-03-25T02:46:36.450Z,20.65
2019-03-25T02:49:08.683Z,20.95
2019-03-25T02:51:40.709Z,21.85
2019-03-25T02:54:12.793Z,19.70
2019-03-25T02:56:44.776Z,18.77
2019-03-25T02:59:17.225Z,19.40
2019-03-25T03:01:51.781Z,18.90
2019-03-25T03:04:23.835Z,18.27
2019-03-25T03:06:56.763Z,18.10
2019-03-25T03:09:28.992Z,17.80
2019-03-25T03:12:02.140Z,18.17
2019-03-25T03:14:34.188Z,18.32
2019-03-25T03:17:06.471Z,18.67
2019-03-25T03:19:38.562Z,17.70
2019-03-25T03:22:36.224Z,19.23
2019-03-25T03:25:12.886Z,17.40
2019-03-25T03:27:45.874Z,16.45
2019-03-25T03:30:18.326Z,16.75
2019-03-25T03:32:50.771Z,16.95
2019-03-25T03:35:23.689Z,16.50
2019-03-25T03:37:56.233Z,17.05
2019-03-25T03:40:28.193Z,17.35
2019-03-25T03:43:00.762Z,16.42
2019-03-25T03:45:33.514Z,16.48
2019-03-25T03:48:06.132Z,16.25
2019-03-25T03:50:38.403Z,16.35
2019-03-25T03:53:11.094Z,16.87
2019-03-25T03:55:43.115Z,16.80
2019-03-25T03:58:16.582Z,16.65
2019-03-25T04:00:49.000Z,15.78
2019-03-25T04:03:21.183Z,15.93
2019-03-25T04:05:53.098Z,18.00
2019-03-25T04:08:25.669Z,16.23
2019-03-25T04:10:58.028Z,16.48
2019-03-25T04:13:31.010Z,17.60
2019-03-25T04:16:03.817Z,18.73
2019-03-25T04:18:44.913Z,16.05
2019-03-25T04:21:29.056Z,21.42
2019-03-25T04:24:02.822Z,19.70
2019-03-25T04:26:47.729Z,20.97
2019-03-25T04:29:19.802Z,15.70
2019-03-25T04:31:51.539Z,16.42
2019-03-25T04:34:42.544Z,14.33
2019-03-25T04:37:14.898Z,15.10
2019-03-25T04:39:48.322Z,15.25
2019-03-25T04:42:20.455Z,15.28
2019-03-25T04:44:52.844Z,15.75
2019-03-25T04:47:25.523Z,15.95
2019-03-25T04:49:57.657Z,14.05
2019-03-25T04:52:29.850Z,13.93
2019-03-25T04:55:02.151Z,14.85
2019-03-25T04:57:34.416Z,13.43
2019-03-25T05:00:08.627Z,14.00
2019-03-25T05:02:40.884Z,13.00
2019-03-25T05:05:13.262Z,13.48
2019-03-25T05:07:45.286Z,14.25
2019-03-25T05:10:17.974Z,14.13
2019-03-25T05:12:50.029Z,13.65
2019-03-25T05:15:23.471Z,14.30
2019-03-25T05:17:55.401Z,12.82
2019-03-25T05:20:27.772Z,13.45
2019-03-25T05:22:59.503Z,13.28
2019-03-25T05:25:32.158Z,14.33
2019-03-25T05:28:04.660Z,15.43
2019-03-25T05:30:37.536Z,14.23
2019-03-25T05:33:10.918Z,14.60
2019-03-25T05:35:46.768Z,15.05
2019-03-25T05:38:30.870Z,13.45
2019-03-25T05:41:03.279Z,15.20
2019-03-25T05:43:35.148Z,13.13
2019-03-25T05:46:07.322Z,16.35
2019-03-25T05:48:40.151Z,14.85
2019-03-25T05:51:12.332Z,14.98
2019-03-25T05:53:44.373Z,13.98
2019-03-25T05:56:16.430Z,14.63
2019-03-25T05:58:48.527Z,15.13
2019-03-25T06:01:21.291Z,15.10
2019-03-25T06:03:54.194Z,14.70
2019-03-25T06:06:25.915Z,14.18
2019-03-25T06:08:57.852Z,13.62
2019-03-25T06:11:30.492Z,14.80
2019-03-25T06:14:02.435Z,14.80
2019-03-25T06:16:35.515Z,13.75
2019-03-25T06:19:26.639Z,14.03
2019-03-25T06:21:59.259Z,14.23
2019-03-25T06:24:31.421Z,14.85
2019-03-25T06:27:13.648Z,14.63
2019-03-25T06:29:37.175Z,14.63
2019-03-25T06:32:08.727Z,16.75
2019-03-25T06:34:40.886Z,13.48
2019-03-25T06:37:13.574Z,13.72
2019-03-25T06:39:45.826Z,13.98
2019-03-25T06:42:17.928Z,14.83
2019-03-25T06:44:50.292Z,14.50
2019-03-25T06:47:22.331Z,14.13
2019-03-25T06:49:57.576Z,13.80
2019-03-25T06:52:29.952Z,14.30
2019-03-25T06:55:02.192Z,13.62
2019-03-25T06:57:35.108Z,14.15
2019-03-25T07:00:18.883Z,14.23
2019-03-25T07:02:51.626Z,13.85
2019-03-25T07:05:33.697Z,13.20
2019-03-25T07:08:06.419Z,15.05
2019-03-25T07:10:39.776Z,13.75
2019-03-25T07:13:17.698Z,13.48
2019-03-25T07:15:50.200Z,13.68
2019-03-25T07:18:23.678Z,14.05
2019-03-25T07:20:56.056Z,13.72
2019-03-25T07:23:28.207Z,12.90
2019-03-25T07:26:00.557Z,13.58
2019-03-25T07:28:32.834Z,13.32
2019-03-25T07:31:04.848Z,13.30
2019-03-25T07:33:37.048Z,14.05
2019-03-25T07:36:09.158Z,14.63
2019-03-25T07:38:41.216Z,13.68
2019-03-25T07:41:13.785Z,14.75
2019-03-25T07:43:45.915Z,14.35
2019-03-25T07:46:18.122Z,14.15
2019-03-25T07:48:50.177Z,14.35
2019-03-25T07:51:22.158Z,13.62
2019-03-25T07:53:55.429Z,15.85
2019-03-25T07:56:27.878Z,14.33
2019-03-25T07:59:00.184Z,15.45
2019-03-25T08:01:33.185Z,14.33
2019-03-25T08:04:05.311Z,14.65
2019-03-25T08:06:37.659Z,14.05
2019-03-25T08:09:29.300Z,15.13
2019-03-25T08:12:01.329Z,15.30
2019-03-25T08:14:33.234Z,14.30
2019-03-25T08:17:06.018Z,15.03
2019-03-25T08:19:41.700Z,15.28
2019-03-25T08:22:14.130Z,14.23
2019-03-25T08:25:06.047Z,15.18
2019-03-25T08:27:39.257Z,14.98
2019-03-25T08:30:12.513Z,14.13
2019-03-25T08:32:45.231Z,13.38
2019-03-25T08:35:17.507Z,14.13
2019-03-25T08:37:51.190Z,14.50
2019-03-25T08:40:23.293Z,15.15
2019-03-25T08:42:55.127Z,16.07
2019-03-25T08:45:28.441Z,13.53
2019-03-25T08:48:00.562Z,14.05
2019-03-25T08:50:32.455Z,14.10
2019-03-25T08:53:04.871Z,14.35
2019-03-25T08:55:36.890Z,14.87
2019-03-25T08:58:12.269Z,15.78
2019-03-25T09:00:43.283Z,16.57
2019-03-25T09:03:15.370Z,14.90
2019-03-25T09:05:47.631Z,14.13
2019-03-25T09:08:38.897Z,14.28
2019-03-25T09:11:12.499Z,14.95
2019-03-25T09:13:45.650Z,14.63
2019-03-25T09:16:17.946Z,14.07
2019-03-25T09:18:51.273Z,14.13
2019-03-25T09:21:24.811Z,13.62
2019-03-25T09:24:05.733Z,13.50
2019-03-25T09:26:38.282Z,14.18
2019-03-25T09:29:10.420Z,14.58
2019-03-25T09:31:42.499Z,15.25
2019-03-25T09:34:15.916Z,14.15
2019-03-25T09:36:48.016Z,14.87
2019-03-25T09:39:19.933Z,14.45
2019-03-25T09:41:52.364Z,13.95
2019-03-25T09:44:24.628Z,14.40
2019-03-25T09:46:56.564Z,13.85
2019-03-25T09:49:29.384Z,14.18
2019-03-25T09:52:01.674Z,14.63
2019-03-25T09:54:34.043Z,14.33
2019-03-25T09:57:06.898Z,15.90
2019-03-25T09:59:39.000Z,13.95
2019-03-25T10:02:30.358Z,13.88
2019-03-25T10:05:02.930Z,13.38
2019-03-25T10:07:35.676Z,12.93
2019-03-25T10:10:09.990Z,14.40
2019-03-25T10:12:42.313Z,13.15
2019-03-25T10:15:14.671Z,14.45
2019-03-25T10:17:48.288Z,16.10
2019-03-25T10:20:21.208Z,14.20
2019-03-25T10:22:54.016Z,13.78
2019-03-25T10:25:26.139Z,13.60
2019-03-25T10:27:58.990Z,16.02
2019-03-25T10:30:31.240Z,14.43
2019-03-25T10:33:03.581Z,14.75
2019-03-25T10:35:36.565Z,15.43
2019-03-25T10:38:19.180Z,17.30
2019-03-25T10:41:02.963Z,13.93
2019-03-25T10:43:35.225Z,14.40
2019-03-25T10:46:09.726Z,14.75
2019-03-25T10:48:41.789Z,14.10
2019-03-25T10:51:14.026Z,14.73
2019-03-25T10:53:46.371Z,14.25
2019-03-25T10:56:18.421Z,13.65
2019-03-25T10:58:57.971Z,14.75
2019-03-25T11:01:24.494Z,14.23
2019-03-25T11:03:56.728Z,14.98
2019-03-25T11:06:28.810Z,15.95
2019-03-25T11:09:01.186Z,15.28
2019-03-25T11:11:34.260Z,16.00
2019-03-25T11:14:26.729Z,17.55
2019-03-25T11:16:58.793Z,17.40
2019-03-25T11:19:32.014Z,16.87
2019-03-25T11:22:04.059Z,17.23
2019-03-25T11:24:37.245Z,18.50
2019-03-25T11:27:09.716Z,18.37
2019-03-25T11:29:49.216Z,17.55
2019-03-25T11:32:21.934Z,18.27
2019-03-25T11:34:54.152Z,19.05
2019-03-25T11:37:35.830Z,20.12
2019-03-25T11:40:29.558Z,19.73
2019-03-25T11:43:01.980Z,19.67
2019-03-25T11:45:34.409Z,19.15
2019-03-25T11:48:26.965Z,20.12
2019-03-25T11:50:59.417Z,21.05
2019-03-25T11:53:31.643Z,20.95
2019-03-25T11:56:04.318Z,21.68
2019-03-25T11:58:36.593Z,21.40
2019-03-25T12:01:09.896Z,22.58
2019-03-25T12:03:42.539Z,22.90
2019-03-25T12:06:14.978Z,22.10
2019-03-25T12:09:08.911Z,22.05
2019-03-25T12:11:41.071Z,21.05
2019-03-25T12:14:13.209Z,21.57
2019-03-25T12:17:05.537Z,20.92
2019-03-25T12:19:38.361Z,22.73
2019-03-25T12:22:12.801Z,23.12
2019-03-25T12:24:44.310Z,22.25
2019-03-25T12:27:17.124Z,24.60
2019-03-25T12:29:49.237Z,22.27
2019-03-25T12:32:21.374Z,23.45
2019-03-25T12:35:14.130Z,25.60
2019-03-25T12:37:46.900Z,24.82
2019-03-25T12:40:19.364Z,23.83
2019-03-25T12:42:51.473Z,23.42
2019-03-25T12:45:24.271Z,22.75
2019-03-25T12:47:56.488Z,21.90
2019-03-25T12:50:28.733Z,23.38
2019-03-25T12:53:00.918Z,27.05
2019-03-25T12:55:33.302Z,28.45
2019-03-25T12:58:07.421Z,28.32
2019-03-25T13:00:42.740Z,27.13
2019-03-25T13:03:15.688Z,27.02
2019-03-25T13:05:47.818Z,27.62
2019-03-25T13:08:19.951Z,26.77
2019-03-25T13:10:53.176Z,25.43
2019-03-25T13:13:25.141Z,26.02
2019-03-25T13:16:01.049Z,25.48
2019-03-25T13:18:33.441Z,26.25
2019-03-25T13:21:06.266Z,28.17
2019-03-25T13:23:38.085Z,26.20
2019-03-25T13:26:10.295Z,25.35
2019-03-25T13:28:47.991Z,23.00
2019-03-25T13:31:20.254Z,21.87
2019-03-25T13:33:53.664Z,20.60
2019-03-25T13:36:26.036Z,19.23
2019-03-25T13:38:58.104Z,20.95
2019-03-25T13:41:30.074Z,20.05
2019-03-25T13:44:02.452Z,20.70
2019-03-25T13:46:35.131Z,21.75
2019-03-25T13:49:07.380Z,21.17
2019-03-25T13:51:40.192Z,20.72
2019-03-25T13:54:12.209Z,21.45
2019-03-25T13:56:44.544Z,20.77
2019-03-25T13:59:16.585Z,20.88
2019-03-25T14:01:48.538Z,21.55
2019-03-25T14:04:21.539Z,19.85
2019-03-25T14:06:53.736Z,19.67
2019-03-25T14:09:25.795Z,20.40
2019-03-25T14:12:18.331Z,20.27
2019-03-25T14:14:50.577Z,20.88
2019-03-25T14:17:22.625Z,20.65
2019-03-25T14:19:54.994Z,20.88
2019-03-25T14:22:27.208Z,21.17
2019-03-25T14:24:58.936Z,19.92
2019-03-25T14:27:31.474Z,21.40
2019-03-25T14:30:13.976Z,21.97
2019-03-25T14:32:38.315Z,21.40
2019-03-25T14:35:12.029Z,20.92
2019-03-25T14:37:44.444Z,21.80
2019-03-25T14:40:17.099Z,21.05
2019-03-25T14:42:50.001Z,21.52
2019-03-25T14:45:26.754Z,22.37
2019-03-25T14:47:56.336Z,21.80
2019-03-25T14:50:28.591Z,19.85
2019-03-25T14:53:00.706Z,21.12
2019-03-25T14:55:33.284Z,20.57
2019-03-25T14:58:05.452Z,21.40
2019-03-25T15:00:37.676Z,20.52
2019-03-25T15:03:10.104Z,19.62
2019-03-25T15:06:02.605Z,21.33
2019-03-25T15:08:35.661Z,20.82
2019-03-25T15:11:08.116Z,20.50
2019-03-25T15:13:40.703Z,20.65
2019-03-25T15:16:12.828Z,20.12
2019-03-25T15:18:45.223Z,21.15
2019-03-25T15:21:18.666Z,20.57
2019-03-25T15:23:50.996Z,22.85
2019-03-25T15:26:23.827Z,22.10
2019-03-25T15:28:55.769Z,21.50
2019-03-25T15:31:48.885Z,22.35
2019-03-25T15:34:21.535Z,22.73
2019-03-25T15:36:53.555Z,23.38
2019-03-25T15:39:25.787Z,23.38
2019-03-25T15:41:58.492Z,22.98
2019-03-25T15:44:30.586Z,24.63
2019-03-25T15:47:03.270Z,24.72
2019-03-25T15:49:35.402Z,26.50
2019-03-25T15:52:07.576Z,25.85
2019-03-25T15:54:39.811Z,26.05
2019-03-25T15:57:11.833Z,25.02
2019-03-25T15:59:44.529Z,25.68
2019-03-25T16:02:16.607Z,26.57
2019-03-25T16:04:48.420Z,27.25
2019-03-25T16:07:20.475Z,26.07
2019-03-25T16:09:52.777Z,26.17
2019-03-25T16:12:25.040Z,27.62
2019-03-25T16:14:57.334Z,26.40
2019-03-25T16:17:29.401Z,27.52
2019-03-25T16:20:01.663Z,26.40
2019-03-25T16:22:33.801Z,28.42
2019-03-25T16:25:09.036Z,28.40
2019-03-25T16:27:41.073Z,28.15
2019-03-25T16:30:13.830Z,28.20
2019-03-25T16:32:46.602Z,29.27
2019-03-25T16:35:18.979Z,27.80
2019-03-25T16:37:51.680Z,29.98
2019-03-25T16:40:24.067Z,28.12
2019-03-25T16:42:57.196Z,29.98
2019-03-25T16:45:29.248Z,28.83
2019-03-25T16:48:01.590Z,27.60
2019-03-25T16:50:33.753Z,27.60
2019-03-25T16:53:05.810Z,28.50
2019-03-25T16:55:38.277Z,27.10
2019-03-25T16:58:10.393Z,27.85
2019-03-25T17:00:43.331Z,28.25
2019-03-25T17:03:15.749Z,26.42
2019-03-25T17:05:47.758Z,26.85
2019-03-25T17:08:22.352Z,26.65
2019-03-25T17:10:56.641Z,24.63
2019-03-25T17:13:28.860Z,25.65
2019-03-25T17:16:01.786Z,24.60
2019-03-25T17:18:34.263Z,25.27
2019-03-25T17:21:06.914Z,24.82
2019-03-25T17:23:39.231Z,24.77
2019-03-25T17:26:11.533Z,24.35
2019-03-25T17:28:43.699Z,23.07
2019-03-25T17:31:20.824Z,24.27
2019-03-25T17:33:49.944Z,22.52
2019-03-25T17:36:22.486Z,22.58
2019-03-25T17:38:54.918Z,22.30
2019-03-25T17:41:26.998Z,20.90
2019-03-25T17:43:59.151Z,20.62
2019-03-25T17:46:31.282Z,21.02
2019-03-25T17:49:03.362Z,19.32
2019-03-25T17:51:35.946Z,19.17
2019-03-25T17:54:08.342Z,19.00
2019-03-25T17:56:40.602Z,18.98
2019-03-25T17:59:12.663Z,18.27
2019-03-25T18:01:45.396Z,17.98
2019-03-25T18:04:17.536Z,17.52
2019-03-25T18:06:49.668Z,18.17
2019-03-25T18:09:21.979Z,18.40
2019-03-25T18:11:54.204Z,18.67
2019-03-25T18:14:26.144Z,17.23
2019-03-25T18:16:58.656Z,16.90
2019-03-25T18:19:30.933Z,18.25
2019-03-25T18:22:02.879Z,17.95
2019-03-25T18:24:34.971Z,16.80
2019-03-25T18:27:06.993Z,17.55
2019-03-25T18:29:39.201Z,18.12
2019-03-25T18:32:12.494Z,18.23
2019-03-25T18:34:45.048Z,16.57
2019-03-25T18:37:19.979Z,18.25
2019-03-25T18:39:52.262Z,18.30
2019-03-25T18:42:24.418Z,18.12
2019-03-25T18:44:56.820Z,17.52
2019-03-25T18:47:29.036Z,17.92
2019-03-25T18:50:01.376Z,16.67
2019-03-25T18:52:33.504Z,17.60
2019-03-25T18:55:07.135Z,16.15
2019-03-25T18:57:39.089Z,16.23
2019-03-25T19:00:14.348Z,15.10
2019-03-25T19:02:46.485Z,15.80
2019-03-25T19:05:18.558Z,16.15
2019-03-25T19:07:51.407Z,15.60
2019-03-25T19:10:27.330Z,16.07
2019-03-25T19:13:00.298Z,15.65
2019-03-25T19:15:32.667Z,15.50
2019-03-25T19:18:04.496Z,15.28
2019-03-25T19:20:36.840Z,14.90
2019-03-25T19:23:08.967Z,15.03
2019-03-25T19:25:41.040Z,15.68
2019-03-25T19:28:13.518Z,14.98
2019-03-25T19:30:45.429Z,15.28
2019-03-25T19:33:17.481Z,14.85
2019-03-25T19:35:49.724Z,15.13
2019-03-25T19:38:23.005Z,16.15
2019-03-25T19:40:56.761Z,16.00
2019-03-25T19:43:28.750Z,15.45
2019-03-25T19:46:01.046Z,16.55
2019-03-25T19:48:33.595Z,15.58
2019-03-25T19:51:07.465Z,17.37
2019-03-25T19:53:40.132Z,19.45
2019-03-25T19:56:12.208Z,17.67
2019-03-25T19:58:44.717Z,17.57
2019-03-25T20:01:19.784Z,16.87
2019-03-25T20:03:52.239Z,18.35
2019-03-25T20:06:26.387Z,18.77
2019-03-25T20:08:58.715Z,19.50
2019-03-25T20:11:33.986Z,18.75
2019-03-25T20:14:06.309Z,18.73
2019-03-25T20:16:38.886Z,17.50
2019-03-25T20:19:11.538Z,19.15
2019-03-25T20:21:48.360Z,19.27
2019-03-25T20:24:20.516Z,20.20
2019-03-25T20:26:52.453Z,19.17
2019-03-25T20:29:24.981Z,19.32
2019-03-25T20:31:56.950Z,16.73
2019-03-25T20:34:29.178Z,15.88
2019-03-25T20:37:01.676Z,16.17
2019-03-25T20:39:34.162Z,17.67
2019-03-25T20:42:08.606Z,18.87
2019-03-25T20:44:43.437Z,15.55
2019-03-25T20:47:15.756Z,17.92
2019-03-25T20:49:47.918Z,17.80
2019-03-25T20:52:20.526Z,18.37
2019-03-25T20:54:52.576Z,19.05
2019-03-25T20:57:24.626Z,17.95
2019-03-25T20:59:57.248Z,17.52
2019-03-25T21:02:29.382Z,17.42
2019-03-25T21:05:01.487Z,17.92
2019-03-25T21:07:34.574Z,19.70
2019-03-25T21:10:09.116Z,19.82
2019-03-25T21:12:41.890Z,18.05
2019-03-25T21:15:14.456Z,18.45
2019-03-25T21:17:46.437Z,18.87
2019-03-25T21:20:18.732Z,18.17
2019-03-25T21:22:51.098Z,19.75
2019-03-25T21:25:23.510Z,18.27
2019-03-25T21:27:55.764Z,18.62
2019-03-25T21:30:28.421Z,18.95
2019-03-25T21:33:00.557Z,18.92
2019-03-25T21:35:33.036Z,18.15
2019-03-25T21:38:05.402Z,19.75
2019-03-25T21:40:38.045Z,19.67
2019-03-25T21:43:11.455Z,20.30
2019-03-25T21:45:44.039Z,20.12
2019-03-25T21:48:15.967Z,19.10
2019-03-25T21:50:48.433Z,17.95
2019-03-25T21:53:20.413Z,19.15
2019-03-25T21:55:52.522Z,18.27
2019-03-25T21:58:25.452Z,19.82
2019-03-25T22:00:57.453Z,19.32
2019-03-25T22:03:29.346Z,20.17
2019-03-25T22:06:01.204Z,21.52
2019-03-25T22:08:33.091Z,21.35
2019-03-25T22:11:05.546Z,22.13
2019-03-25T22:13:38.334Z,22.22
2019-03-25T22:16:10.342Z,22.05
2019-03-25T22:18:55.982Z,22.60
2019-03-25T22:21:27.950Z,21.23
2019-03-25T22:24:00.156Z,22.55
2019-03-25T22:26:33.109Z,22.62
2019-03-25T22:29:08.908Z,20.75
2019-03-25T22:31:41.078Z,20.92
2019-03-25T22:34:13.178Z,21.30
2019-03-25T22:36:45.210Z,21.17
2019-03-25T22:39:18.036Z,21.97
2019-03-25T22:41:50.193Z,22.07
2019-03-25T22:44:22.756Z,22.00
2019-03-25T22:46:54.695Z,23.02
2019-03-25T22:49:29.102Z,22.87
2019-03-25T22:52:00.956Z,21.97
2019-03-25T22:54:33.180Z,22.62
2019-03-25T22:57:05.211Z,22.93
2019-03-25T22:59:37.421Z,22.55
2019-03-25T23:02:10.466Z,23.55
2019-03-25T23:04:42.427Z,25.50
2019-03-25T23:07:14.571Z,22.98
2019-03-25T23:09:46.683Z,23.15
2019-03-25T23:12:18.866Z,24.82
2019-03-25T23:14:52.108Z,25.20
2019-03-25T23:17:25.074Z,24.27
2019-03-25T23:19:57.308Z,26.45
2019-03-25T23:22:29.420Z,24.12
2019-03-25T23:25:01.905Z,25.00
2019-03-25T23:27:34.282Z,25.08
2019-03-25T23:30:08.393Z,25.52
2019-03-25T23:32:40.316Z,28.00
2019-03-25T23:35:12.527Z,28.75
2019-03-25T23:37:45.340Z,28.02
2019-03-25T23:40:17.734Z,27.17
2019-03-25T23:42:49.863Z,26.87
2019-03-25T23:45:23.348Z,28.10
2019-03-25T23:48:02.590Z,27.67
2019-03-25T23:50:34.940Z,27.95
2019-03-25T23:53:07.156Z,27.73
2019-03-25T23:55:39.094Z,29.02
2019-03-25T23:58:11.492Z,30.43
